Kansas, Vermont
Current Conditions -  °F | °C
As of 10:54 PM on Saturday 22 Nov 2014 (Local Time) from KDDH Reporting Station
Overcast Overcast  
Wind Chill: 38°   Ceiling: 2400
Heat Index: 38°   Visibility: 10mi
Dew Point: 24°   Wind: 0mph
Humidity: 57%   Direction: NA
Pressure: 30.05"   Gusts: NA
Location:  43.0661°N, 73.1407°W
Report Text: KDDH 230354Z AUTO 00000KT 10SM OVC024 03/M04 A3005 RMK AO2 RAE03 SLP184 P0000 T00331044
Loading
Personal Weather Stations






























Interactive Weather Map New forecast layout! Learn more

10-Day Weather Forecast

Advertisements
Track Severe Weather on mobile